createdAt,value
2018-08-22T00:01:26.841Z,94913.91
2018-08-22T00:03:55.634Z,94914.33
2018-08-22T00:06:24.294Z,94910.25
2018-08-22T00:08:53.004Z,94914.47
2018-08-22T00:11:21.845Z,94910.97
2018-08-22T00:13:50.567Z,94915.34
2018-08-22T00:16:19.279Z,94903.85
2018-08-22T00:18:47.993Z,94914.33
2018-08-22T00:21:16.678Z,94908.48
2018-08-22T00:23:45.370Z,94908.42
2018-08-22T00:26:14.096Z,94912.14
2018-08-22T00:28:43.043Z,94903.81
2018-08-22T00:31:11.762Z,94902.56
2018-08-22T00:33:40.499Z,94907.73
2018-08-22T00:36:09.255Z,94910.37
2018-08-22T00:38:38.002Z,94906.87
2018-08-22T00:41:06.734Z,94914.92
2018-08-22T00:43:35.470Z,94909.13
2018-08-22T00:46:04.196Z,94911.34
2018-08-22T00:48:32.985Z,94922.61
2018-08-22T00:51:01.774Z,94919.90
2018-08-22T00:53:30.474Z,94922.45
2018-08-22T00:55:59.151Z,94921.21
2018-08-22T00:58:27.857Z,94916.43
2018-08-22T01:00:56.551Z,94921.92
2018-08-22T01:03:25.301Z,94918.35
2018-08-22T01:05:53.987Z,94919.59
2018-08-22T01:08:22.666Z,94915.97
2018-08-22T01:10:51.362Z,94921.38
2018-08-22T01:13:20.048Z,94921.59
2018-08-22T01:15:48.818Z,94925.84
2018-08-22T01:18:17.524Z,94929.27
2018-08-22T01:20:46.216Z,94928.96
2018-08-22T01:23:15.000Z,94922.52
2018-08-22T01:25:43.693Z,94927.56
2018-08-22T01:28:12.399Z,94926.39
2018-08-22T01:30:41.102Z,94933.98
2018-08-22T01:33:09.830Z,94930.39
2018-08-22T01:35:38.551Z,94930.39
2018-08-22T01:38:07.347Z,94923.45
2018-08-22T01:40:36.104Z,94923.92
2018-08-22T01:43:04.810Z,94920.27
2018-08-22T01:45:33.495Z,94920.27
2018-08-22T01:48:02.196Z,94920.88
2018-08-22T01:50:30.900Z,94921.59
2018-08-22T01:52:59.575Z,94919.89
2018-08-22T01:55:28.239Z,94925.63
2018-08-22T01:57:56.927Z,94925.76
2018-08-22T02:00:25.654Z,94921.42
2018-08-22T02:02:54.399Z,94931.02
2018-08-22T02:05:23.119Z,94929.62
2018-08-22T02:07:51.841Z,94931.08
2018-08-22T02:10:20.671Z,94937.41
2018-08-22T02:12:49.384Z,94930.05
2018-08-22T02:15:18.085Z,94935.45
2018-08-22T02:17:46.793Z,94936.59
2018-08-22T02:20:15.470Z,94929.92
2018-08-22T02:22:44.188Z,94932.66
2018-08-22T02:25:12.954Z,94934.63
2018-08-22T02:27:41.603Z,94933.33
2018-08-22T02:30:10.427Z,94932.92
2018-08-22T02:32:39.149Z,94931.82
2018-08-22T02:35:07.902Z,94930.08
2018-08-22T02:37:36.591Z,94930.68
2018-08-22T02:40:05.481Z,94930.38
2018-08-22T02:42:34.175Z,94935.55
2018-08-22T02:45:02.877Z,94934.02
2018-08-22T02:47:31.571Z,94926.55
2018-08-22T02:50:00.271Z,94931.82
2018-08-22T02:52:28.958Z,94931.53
2018-08-22T02:54:57.690Z,94930.83
2018-08-22T02:57:26.434Z,94934.69
2018-08-22T02:59:55.124Z,94933.59
2018-08-22T03:02:23.809Z,94940.07
2018-08-22T03:04:52.618Z,94940.91
2018-08-22T03:07:21.338Z,94944.33
2018-08-22T03:09:50.037Z,94946.86
2018-08-22T03:12:18.730Z,94945.40
2018-08-22T03:14:48.031Z,94950.69
2018-08-22T03:17:16.705Z,94953.13
2018-08-22T03:19:45.470Z,94947.66
2018-08-22T03:22:14.152Z,94950.09
2018-08-22T03:24:42.831Z,94950.94
2018-08-22T03:27:11.545Z,94951.53
2018-08-22T03:29:40.269Z,94955.70
2018-08-22T03:32:08.986Z,94954.79
2018-08-22T03:34:37.681Z,94962.85
2018-08-22T03:37:06.427Z,94954.87
2018-08-22T03:39:35.154Z,94963.06
2018-08-22T03:42:03.874Z,94967.09
2018-08-22T03:44:32.643Z,94970.25
2018-08-22T03:47:01.495Z,94969.23
2018-08-22T03:49:30.202Z,94971.97
2018-08-22T03:51:58.884Z,94973.27
2018-08-22T03:54:27.603Z,94983.67
2018-08-22T03:56:56.284Z,94977.73
2018-08-22T03:59:24.961Z,94973.49
2018-08-22T04:01:53.680Z,94979.33
2018-08-22T04:04:22.379Z,94980.16
2018-08-22T04:06:51.095Z,94983.17
2018-08-22T04:09:19.779Z,94983.69
2018-08-22T04:11:48.483Z,94988.03
2018-08-22T04:14:17.309Z,94992.67
2018-08-22T04:16:46.006Z,94999.05
2018-08-22T04:19:14.738Z,94996.83
2018-08-22T04:21:43.472Z,95002.88
2018-08-22T04:24:12.211Z,95005.22
2018-08-22T04:26:40.933Z,95010.36
2018-08-22T04:29:09.752Z,95010.04
2018-08-22T04:31:38.412Z,95013.59
2018-08-22T04:34:07.130Z,95013.48
2018-08-22T04:36:35.950Z,95014.78
2018-08-22T04:39:06.023Z,95019.92
2018-08-22T04:41:34.747Z,95019.10
2018-08-22T04:44:03.487Z,95019.91
2018-08-22T04:46:33.683Z,95018.48
2018-08-22T04:49:03.132Z,95018.76
2018-08-22T04:51:31.877Z,95024.02
2018-08-22T04:54:00.600Z,95014.33
2018-08-22T04:56:29.442Z,95022.89
2018-08-22T04:58:58.138Z,95017.52
2018-08-22T05:01:26.964Z,95028.61
2018-08-22T05:03:55.730Z,95034.18
2018-08-22T05:06:24.429Z,95034.27
2018-08-22T05:08:53.102Z,95026.77
2018-08-22T05:11:21.800Z,95025.64
2018-08-22T05:13:50.519Z,95020.52
2018-08-22T05:16:19.274Z,95020.88
2018-08-22T05:18:47.950Z,95014.98
2018-08-22T05:21:16.636Z,95014.08
2018-08-22T05:23:45.350Z,95017.44
2018-08-22T05:26:14.092Z,95013.56
2018-08-22T05:28:42.809Z,95019.80
2018-08-22T05:31:11.546Z,95015.52
2018-08-22T05:33:40.243Z,95027.62
2018-08-22T05:36:08.939Z,95021.91
2018-08-22T05:38:37.724Z,95028.25
2018-08-22T05:41:06.419Z,95033.44
2018-08-22T05:43:35.107Z,95030.55
2018-08-22T05:46:03.852Z,95037.38
2018-08-22T05:48:32.568Z,95036.80
2018-08-22T05:51:01.347Z,95034.08
2018-08-22T05:53:30.042Z,95022.83
2018-08-22T05:55:59.063Z,95024.98
2018-08-22T05:58:28.001Z,95026.91
2018-08-22T06:00:56.829Z,95026.31
2018-08-22T06:03:25.907Z,95028.30
2018-08-22T06:05:54.626Z,95024.95
2018-08-22T06:08:23.382Z,95026.41
2018-08-22T06:10:52.180Z,95028.23
2018-08-22T06:13:20.911Z,95027.88
2018-08-22T06:15:49.875Z,95034.65
2018-08-22T06:18:18.511Z,95031.42
2018-08-22T06:20:47.217Z,95040.29
2018-08-22T06:23:15.967Z,95038.02
2018-08-22T06:25:44.721Z,95033.97
2018-08-22T06:28:14.175Z,95037.81
2018-08-22T06:30:42.995Z,95038.17
2018-08-22T06:33:11.724Z,95038.67
2018-08-22T06:35:40.592Z,95047.81
2018-08-22T06:38:09.375Z,95045.95
2018-08-22T06:40:38.103Z,95040.66
2018-08-22T06:43:06.845Z,95042.05
2018-08-22T06:45:35.617Z,95042.41
2018-08-22T06:48:04.356Z,95043.62
2018-08-22T06:50:33.024Z,95044.45
2018-08-22T06:53:01.739Z,95045.07
2018-08-22T06:55:30.419Z,95045.42
2018-08-22T06:57:59.138Z,95049.03
2018-08-22T07:00:27.903Z,95045.02
2018-08-22T07:02:56.578Z,95048.59
2018-08-22T07:05:25.356Z,95048.95
2018-08-22T07:07:54.154Z,95053.11
2018-08-22T07:10:22.912Z,95050.25
2018-08-22T07:12:51.666Z,95049.09
2018-08-22T07:15:20.382Z,95043.85
2018-08-22T07:17:49.118Z,95047.56
2018-08-22T07:20:17.778Z,95042.47
2018-08-22T07:22:46.479Z,95043.79
2018-08-22T07:25:15.883Z,95044.48
2018-08-22T07:27:48.464Z,95037.52
2018-08-22T07:30:17.259Z,95043.52
2018-08-22T07:32:49.180Z,95038.03
2018-08-22T07:35:17.921Z,95037.78
2018-08-22T07:37:46.726Z,95042.28
2018-08-22T07:40:15.433Z,95044.91
2018-08-22T07:42:44.207Z,95037.33
2018-08-22T07:45:12.949Z,95046.33
2018-08-22T07:47:44.052Z,95043.27
2018-08-22T07:50:12.901Z,95034.39
2018-08-22T07:52:49.170Z,95036.88
2018-08-22T07:55:17.939Z,95034.64
2018-08-22T07:57:46.700Z,95035.82
2018-08-22T08:00:15.533Z,95033.85
2018-08-22T08:02:44.144Z,95031.75
2018-08-22T08:05:12.903Z,95029.27
2018-08-22T08:07:41.585Z,95028.03
2018-08-22T08:10:44.135Z,95034.06
2018-08-22T08:13:17.895Z,95030.16
2018-08-22T08:15:47.557Z,95035.64
2018-08-22T08:18:16.320Z,95030.89
2018-08-22T08:20:45.008Z,95029.65
2018-08-22T08:23:13.671Z,95030.21
2018-08-22T08:25:42.422Z,95033.23
2018-08-22T08:28:11.115Z,95027.27
2018-08-22T08:30:39.836Z,95030.38
2018-08-22T08:33:08.509Z,95026.73
2018-08-22T08:35:37.303Z,95028.91
2018-08-22T08:38:06.183Z,95024.80
2018-08-22T08:40:34.870Z,95024.16
2018-08-22T08:43:03.613Z,95020.23
2018-08-22T08:45:32.332Z,95024.83
2018-08-22T08:48:01.039Z,95016.09
2018-08-22T08:50:29.732Z,95014.83
2018-08-22T08:52:58.421Z,95017.24
2018-08-22T08:55:27.148Z,95013.33
2018-08-22T08:57:55.864Z,95014.75
2018-08-22T09:00:24.558Z,95013.73
2018-08-22T09:02:53.296Z,95023.30
2018-08-22T09:05:22.012Z,95017.48
2018-08-22T09:07:50.666Z,95006.84
2018-08-22T09:10:19.416Z,95014.30
2018-08-22T09:12:48.105Z,95008.45
2018-08-22T09:15:16.772Z,95007.12
2018-08-22T09:17:45.682Z,95006.09
2018-08-22T09:20:14.393Z,95003.98
2018-08-22T09:22:43.039Z,94996.76
2018-08-22T09:25:11.728Z,94998.63
2018-08-22T09:27:40.729Z,94997.58
2018-08-22T09:30:09.518Z,94991.95
2018-08-22T09:32:38.185Z,94982.88
2018-08-22T09:35:06.934Z,94981.27
2018-08-22T09:37:35.607Z,94978.06
2018-08-22T09:40:04.416Z,94972.73
2018-08-22T09:42:33.080Z,94974.60
2018-08-22T09:45:01.823Z,94965.23
2018-08-22T09:47:30.507Z,94967.62
2018-08-22T09:49:59.200Z,94963.31
2018-08-22T09:52:27.966Z,94961.18
2018-08-22T09:55:02.996Z,94963.55
2018-08-22T09:57:32.245Z,94957.34
2018-08-22T10:00:01.015Z,94960.82
2018-08-22T10:02:29.704Z,94959.47
2018-08-22T10:04:59.744Z,94953.86
2018-08-22T10:07:28.558Z,94953.88
2018-08-22T10:09:57.248Z,94955.52
2018-08-22T10:12:25.962Z,94949.07
2018-08-22T10:14:54.725Z,94944.79
2018-08-22T10:17:23.537Z,94941.80
2018-08-22T10:19:52.222Z,94945.34
2018-08-22T10:22:21.022Z,94940.64
2018-08-22T10:24:49.723Z,94949.72
2018-08-22T10:27:18.406Z,94941.06
2018-08-22T10:29:47.103Z,94940.19
2018-08-22T10:32:15.797Z,94936.98
2018-08-22T10:34:44.497Z,94939.35
2018-08-22T10:37:13.188Z,94932.42
2018-08-22T10:39:41.870Z,94930.58
2018-08-22T10:42:10.592Z,94929.57
2018-08-22T10:44:39.342Z,94933.80
2018-08-22T10:47:08.022Z,94933.69
2018-08-22T10:49:36.736Z,94932.80
2018-08-22T10:52:05.447Z,94929.99
2018-08-22T10:54:34.138Z,94921.45
2018-08-22T10:57:02.831Z,94922.06
2018-08-22T10:59:31.503Z,94917.21
2018-08-22T11:02:00.196Z,94912.03
2018-08-22T11:04:28.899Z,94920.83
2018-08-22T11:06:57.567Z,94920.23
2018-08-22T11:09:26.260Z,94908.11
2018-08-22T11:11:54.979Z,94913.73
2018-08-22T11:14:23.676Z,94909.97
2018-08-22T11:16:52.363Z,94909.60
2018-08-22T11:19:21.088Z,94910.09
2018-08-22T11:22:00.769Z,94911.63
2018-08-22T11:24:40.471Z,94907.44
2018-08-22T11:27:20.300Z,94903.56
2018-08-22T11:30:00.046Z,94896.20
2018-08-22T11:32:39.696Z,94898.51
2018-08-22T11:35:07.077Z,94899.40
2018-08-22T11:37:35.798Z,94891.86
2018-08-22T11:40:04.516Z,94896.33
2018-08-22T11:42:33.184Z,94899.44
2018-08-22T11:45:01.926Z,94896.92
2018-08-22T11:47:30.649Z,94897.05
2018-08-22T11:49:59.354Z,94892.55
2018-08-22T11:52:28.037Z,94890.52
2018-08-22T11:54:56.784Z,94885.84
2018-08-22T11:57:25.452Z,94879.11
2018-08-22T11:59:54.183Z,94878.78
2018-08-22T12:02:22.875Z,94876.70
2018-08-22T12:04:51.633Z,94867.12
2018-08-22T12:07:20.357Z,94869.84
2018-08-22T12:09:49.055Z,94864.27
2018-08-22T12:12:17.717Z,94865.48
2018-08-22T12:14:46.407Z,94872.34
2018-08-22T12:17:15.081Z,94872.13
2018-08-22T12:19:43.771Z,94865.89
2018-08-22T12:22:12.478Z,94857.97
2018-08-22T12:24:41.229Z,94864.50
2018-08-22T12:27:09.936Z,94860.05
2018-08-22T12:29:38.656Z,94863.52
2018-08-22T12:32:07.398Z,94859.23
2018-08-22T12:34:36.059Z,94860.41
2018-08-22T12:37:05.158Z,94847.95
2018-08-22T12:39:33.884Z,94847.70
2018-08-22T12:42:02.572Z,94849.80
2018-08-22T12:44:31.321Z,94845.45
2018-08-22T12:47:00.009Z,94852.18
2018-08-22T12:49:28.714Z,94846.31
2018-08-22T12:51:57.397Z,94846.61
2018-08-22T12:54:26.099Z,94833.46
2018-08-22T12:56:54.875Z,94842.50
2018-08-22T12:59:23.617Z,94842.31
2018-08-22T13:01:52.338Z,94840.05
2018-08-22T13:04:21.058Z,94837.30
2018-08-22T13:06:49.811Z,94831.58
2018-08-22T13:09:18.625Z,94826.91
2018-08-22T13:11:47.331Z,94830.45
2018-08-22T13:14:16.053Z,94827.02
2018-08-22T13:16:44.758Z,94827.87
2018-08-22T13:19:13.518Z,94828.36
2018-08-22T13:21:42.214Z,94821.48
2018-08-22T13:24:10.999Z,94827.07
2018-08-22T13:26:39.621Z,94816.27
2018-08-22T13:29:08.371Z,94826.55
2018-08-22T13:31:37.064Z,94826.19
2018-08-22T13:34:05.931Z,94816.06
2018-08-22T13:36:34.677Z,94821.64
2018-08-22T13:39:04.588Z,94825.30
2018-08-22T13:41:33.230Z,94826.09
2018-08-22T13:44:01.917Z,94821.83
2018-08-22T13:46:30.597Z,94814.01
2018-08-22T13:48:59.368Z,94825.45
2018-08-22T13:51:28.073Z,94826.95
2018-08-22T13:53:56.801Z,94819.49
2018-08-22T13:56:25.576Z,94818.22
2018-08-22T13:58:54.469Z,94821.81
2018-08-22T14:01:23.198Z,94822.91
2018-08-22T14:03:51.997Z,94816.55
2018-08-22T14:06:20.853Z,94822.68
2018-08-22T14:08:49.530Z,94814.55
2018-08-22T14:11:18.238Z,94812.49
2018-08-22T14:13:46.970Z,94811.72
2018-08-22T14:16:15.672Z,94809.73
2018-08-22T14:18:44.369Z,94807.89
2018-08-22T14:21:13.137Z,94808.81
2018-08-22T14:23:41.820Z,94804.52
2018-08-22T14:26:10.591Z,94803.41
2018-08-22T14:28:39.355Z,94796.89
2018-08-22T14:31:08.088Z,94800.45
2018-08-22T14:33:36.769Z,94795.64
2018-08-22T14:36:05.480Z,94796.42
2018-08-22T14:38:34.483Z,94790.39
2018-08-22T14:41:03.407Z,94784.71
2018-08-22T14:43:32.179Z,94793.27
2018-08-22T14:46:00.921Z,94788.79
2018-08-22T14:48:29.600Z,94787.77
2018-08-22T14:50:58.309Z,94793.37
2018-08-22T14:53:26.993Z,94792.91
2018-08-22T14:55:55.724Z,94795.83
2018-08-22T14:58:24.479Z,94793.48
2018-08-22T15:00:53.378Z,94786.72
2018-08-22T15:03:22.290Z,94787.43
2018-08-22T15:05:50.858Z,94788.84
2018-08-22T15:08:19.586Z,94789.45
2018-08-22T15:10:48.834Z,94785.58
2018-08-22T15:13:17.537Z,94784.67
2018-08-22T15:15:47.120Z,94784.14
2018-08-22T15:18:15.933Z,94783.68
2018-08-22T15:20:44.718Z,94777.67
2018-08-22T15:23:13.423Z,94780.23
2018-08-22T15:25:42.126Z,94773.28
2018-08-22T15:28:10.831Z,94775.13
2018-08-22T15:30:39.552Z,94782.55
2018-08-22T15:33:08.278Z,94783.73
2018-08-22T15:35:37.009Z,94783.83
2018-08-22T15:38:05.858Z,94783.76
2018-08-22T15:40:34.567Z,94792.90
2018-08-22T15:43:03.291Z,94789.66
2018-08-22T15:45:32.067Z,94789.38
2018-08-22T15:48:00.752Z,94794.13
2018-08-22T15:50:29.438Z,94794.09
2018-08-22T15:52:58.313Z,94793.35
2018-08-22T15:55:27.010Z,94795.27
2018-08-22T15:57:59.856Z,94799.55
2018-08-22T16:00:49.484Z,94796.18
2018-08-22T16:03:18.173Z,94796.70
2018-08-22T16:05:47.728Z,94794.72
2018-08-22T16:08:17.840Z,94797.89
2018-08-22T16:10:46.530Z,94790.52
2018-08-22T16:13:20.261Z,94795.34
2018-08-22T16:15:50.638Z,94790.71
2018-08-22T16:18:19.528Z,94790.70
2018-08-22T16:21:00.603Z,94791.34
2018-08-22T16:23:31.113Z,94786.00
2018-08-22T16:26:01.013Z,94787.94
2018-08-22T16:28:36.523Z,94788.19
2018-08-22T16:31:05.256Z,94789.98
2018-08-22T16:33:33.986Z,94793.03
2018-08-22T16:36:02.780Z,94790.57
2018-08-22T16:38:31.513Z,94792.88
2018-08-22T16:41:00.223Z,94793.55
2018-08-22T16:43:41.210Z,94796.12
2018-08-22T16:46:11.595Z,94792.65
2018-08-22T16:48:41.243Z,94800.25
2018-08-22T16:51:09.972Z,94795.10
2018-08-22T16:53:38.696Z,94797.45
2018-08-22T16:56:07.499Z,94802.54
2018-08-22T16:58:36.245Z,94801.70
2018-08-22T17:01:04.971Z,94803.80
2018-08-22T17:03:33.695Z,94812.17
2018-08-22T17:06:12.576Z,94812.53
2018-08-22T17:08:41.751Z,94813.87
2018-08-22T17:11:12.056Z,94814.40
2018-08-22T17:13:49.670Z,94819.60
2018-08-22T17:16:18.532Z,94813.08
2018-08-22T17:18:47.572Z,94816.38
2018-08-22T17:21:16.414Z,94819.94
2018-08-22T17:23:45.414Z,94819.45
2018-08-22T17:26:16.150Z,94825.22
2018-08-22T17:28:47.446Z,94822.09
2018-08-22T17:31:16.972Z,94826.40
2018-08-22T17:33:51.422Z,94827.76
2018-08-22T17:36:20.086Z,94830.19
2018-08-22T17:38:50.036Z,94840.06
2018-08-22T17:41:20.692Z,94840.63
2018-08-22T17:44:14.130Z,94846.56
2018-08-22T17:46:45.484Z,94849.77
2018-08-22T17:49:14.177Z,94858.58
2018-08-22T17:52:09.608Z,94854.09
2018-08-22T17:54:38.352Z,94864.77
2018-08-22T17:57:31.200Z,94862.86
2018-08-22T17:59:59.961Z,94865.26
2018-08-22T18:02:28.813Z,94867.14
2018-08-22T18:05:01.841Z,94870.59
2018-08-22T18:07:30.871Z,94871.37
2018-08-22T18:09:59.694Z,94873.25
2018-08-22T18:12:28.769Z,94880.98
2018-08-22T18:14:58.601Z,94877.53
2018-08-22T18:17:27.365Z,94884.19
2018-08-22T18:19:56.086Z,94879.37
2018-08-22T18:22:30.213Z,94881.48
2018-08-22T18:24:59.110Z,94884.41
2018-08-22T18:27:28.294Z,94883.36
2018-08-22T18:29:57.020Z,94883.35
2018-08-22T18:32:25.730Z,94886.02
2018-08-22T18:35:11.430Z,94892.95
2018-08-22T18:37:40.795Z,94893.69
2018-08-22T18:40:19.166Z,94897.94
2018-08-22T18:42:50.274Z,94904.02
2018-08-22T18:45:19.451Z,94904.01
2018-08-22T18:47:48.190Z,94905.30
2018-08-22T18:50:16.961Z,94898.38
2018-08-22T18:52:48.453Z,94903.94
2018-08-22T18:55:17.213Z,94905.52
2018-08-22T18:57:45.967Z,94903.09
2018-08-22T19:00:14.675Z,94907.31
2018-08-22T19:02:43.435Z,94916.32
2018-08-22T19:05:26.149Z,94913.61
2018-08-22T19:08:05.049Z,94912.50
2018-08-22T19:10:35.195Z,94907.42
2018-08-22T19:13:09.085Z,94907.09
2018-08-22T19:15:38.336Z,94908.77
2018-08-22T19:18:08.569Z,94906.95
2018-08-22T19:20:37.507Z,94908.81
2018-08-22T19:23:06.925Z,94908.73
2018-08-22T19:25:35.640Z,94906.30
2018-08-22T19:28:04.434Z,94907.99
2018-08-22T19:30:36.123Z,94909.97
2018-08-22T19:33:05.172Z,94906.62
2018-08-22T19:35:33.963Z,94905.72
2018-08-22T19:38:04.540Z,94901.73
2018-08-22T19:40:35.130Z,94905.30
2018-08-22T19:43:04.031Z,94909.34
2018-08-22T19:45:35.075Z,94910.56
2018-08-22T19:48:03.960Z,94904.41
2018-08-22T19:50:33.118Z,94900.70
2018-08-22T19:53:01.858Z,94903.29
2018-08-22T19:55:31.080Z,94911.59
2018-08-22T19:57:59.937Z,94904.41
2018-08-22T20:00:28.751Z,94904.64
2018-08-22T20:02:58.358Z,94903.88
2018-08-22T20:05:27.403Z,94904.67
2018-08-22T20:07:56.126Z,94902.83
2018-08-22T20:10:25.057Z,94899.89
2018-08-22T20:12:55.922Z,94899.61
2018-08-22T20:15:25.018Z,94895.55
2018-08-22T20:17:54.747Z,94891.08
2018-08-22T20:20:23.498Z,94891.00
2018-08-22T20:22:54.469Z,94886.09
2018-08-22T20:25:23.071Z,94884.69
2018-08-22T20:27:51.765Z,94884.97
2018-08-22T20:30:22.315Z,94884.63
2018-08-22T20:33:00.065Z,94888.84
2018-08-22T20:35:36.836Z,94892.28
2018-08-22T20:38:06.992Z,94881.02
2018-08-22T20:40:35.766Z,94884.15
2018-08-22T20:43:04.533Z,94888.07
2018-08-22T20:45:36.296Z,94888.55
2018-08-22T20:48:11.960Z,94888.48
2018-08-22T20:50:41.991Z,94886.34
2018-08-22T20:53:12.213Z,94891.64
2018-08-22T20:55:41.033Z,94894.98
2018-08-22T20:58:15.368Z,94893.95
2018-08-22T21:00:44.153Z,94895.75
2018-08-22T21:03:12.854Z,94899.66
2018-08-22T21:05:41.724Z,94903.63
2018-08-22T21:08:10.459Z,94905.43
2018-08-22T21:10:39.193Z,94900.42
2018-08-22T21:13:13.465Z,94898.99
2018-08-22T21:15:42.643Z,94898.28
2018-08-22T21:18:11.376Z,94902.46
2018-08-22T21:20:40.090Z,94904.95
2018-08-22T21:23:08.828Z,94903.27
2018-08-22T21:25:37.547Z,94902.53
2018-08-22T21:28:06.251Z,94901.17
2018-08-22T21:30:35.172Z,94914.38
2018-08-22T21:33:03.936Z,94918.50
2018-08-22T21:35:32.839Z,94919.30
2018-08-22T21:38:07.453Z,94918.70
2018-08-22T21:40:36.258Z,94918.05
2018-08-22T21:43:05.053Z,94920.45
2018-08-22T21:45:33.787Z,94922.36
2018-08-22T21:48:14.258Z,94927.61
2018-08-22T21:50:43.823Z,94928.84
2018-08-22T21:53:12.568Z,94932.53
2018-08-22T21:55:42.514Z,94928.98
2018-08-22T21:58:11.859Z,94927.48
2018-08-22T22:00:40.652Z,94932.83
2018-08-22T22:03:10.668Z,94922.89
2018-08-22T22:05:46.580Z,94928.56
2018-08-22T22:08:15.375Z,94936.25
2018-08-22T22:10:44.079Z,94937.00
2018-08-22T22:13:12.920Z,94941.34
2018-08-22T22:15:46.491Z,94937.58
2018-08-22T22:18:15.201Z,94937.41
2018-08-22T22:20:47.983Z,94946.35
2018-08-22T22:23:16.701Z,94944.94
2018-08-22T22:25:45.455Z,94945.68
2018-08-22T22:28:14.286Z,94940.58
2018-08-22T22:30:43.057Z,94940.58
2018-08-22T22:33:11.794Z,94939.26
2018-08-22T22:35:41.568Z,94940.09
2018-08-22T22:40:40.210Z,94943.69
2018-08-22T22:43:13.345Z,94940.83
2018-08-22T22:45:42.095Z,94934.81
2018-08-22T22:48:10.780Z,94932.91
2018-08-22T22:50:39.509Z,94936.50
2018-08-22T22:53:08.195Z,94939.72
2018-08-22T22:55:36.899Z,94937.77
2018-08-22T22:58:05.651Z,94941.54
2018-08-22T23:00:34.387Z,94939.77
2018-08-22T23:03:07.623Z,94943.45
2018-08-22T23:05:36.340Z,94943.34
2018-08-22T23:08:05.063Z,94944.53
2018-08-22T23:10:33.806Z,94943.84
2018-08-22T23:13:02.533Z,94940.01
2018-08-22T23:15:31.743Z,94935.09
2018-08-22T23:18:01.688Z,94930.01
2018-08-22T23:20:41.146Z,94928.23
2018-08-22T23:23:25.975Z,94935.88
2018-08-22T23:25:55.610Z,94928.19
2018-08-22T23:28:24.308Z,94930.78
2018-08-22T23:30:53.058Z,94930.19
2018-08-22T23:33:21.783Z,94932.48
2018-08-22T23:35:50.506Z,94929.11
2018-08-22T23:38:24.478Z,94931.41
2018-08-22T23:40:53.349Z,94927.14
2018-08-22T23:43:22.185Z,94928.70
2018-08-22T23:45:57.023Z,94923.18
2018-08-22T23:48:30.872Z,94926.48
2018-08-22T23:51:01.335Z,94925.71
2018-08-22T23:53:37.209Z,94925.16
2018-08-22T23:56:14.771Z,94927.95
2018-08-22T23:58:44.621Z,94926.98
